Boeing 737-86NW from Travel Service at Funchal.
 Regi:OK-TVT  LARGER
 MSN Year:39394 2012
 Date of picture:2019-05-22 16:52
 Position:05
 Flight: DEP PRG QS1171 Prague Vaclav Havel Czech Republic
 Logs: PRG Prague QS1171 Travel Service 16:48 PM B738 departed
2019/05/22 18:58 TVS6FI TVS6FI - OK-TVT a/c registered in Czech Republic TravelService B738
 Notam LPMA A1836/19 International 05/22/2019 0902 05/22/2019 1700 GRASS CUTTING ALONG RWY 05/23 STRIPS. MEN AND EQUIPMENT UNDER TOWER CONTROL AND AERODROME AUTHORITY SUPERVISION.
 Metar 22/05/2019 16:30 METAR LPMA 221630Z 03014KT 9999 FEW016 22/14 Q1021=
 Hits: 38 ID: 2301

Debriefing: Photographed movements of Airports in NW-Europe.
The images of our site attendant is in authorisation from Queen of Sky.
Copying of images of this site have been prohibited in which manner without the authorisation of the photographer.
In behalf of the crew :"Thank you visiting us" - Contact
Factsheets Boeing, 737-86NW, Travel Service, made by De Plane! © 2006 - 2022 All rights reserved


.